createdAt,value
2023-05-10T00:00:07.542Z,46.3168
2023-05-10T00:01:09.373Z,46.2715
2023-05-10T00:02:11.260Z,46.1847
2023-05-10T00:03:13.082Z,46.1398
2023-05-10T00:04:15.021Z,46.0319
2023-05-10T00:05:16.714Z,46.0033
2023-05-10T00:06:18.543Z,45.9476
2023-05-10T00:07:20.356Z,45.9023
2023-05-10T00:08:22.200Z,45.8575
2023-05-10T00:09:24.060Z,45.8630
2023-05-10T00:10:25.855Z,45.8389
2023-05-10T00:11:27.715Z,45.8322
2023-05-10T00:12:29.546Z,45.8557
2023-05-10T00:13:31.439Z,45.7468
2023-05-10T00:14:33.274Z,45.7213
2023-05-10T00:15:35.044Z,45.7231
2023-05-10T00:16:36.925Z,45.6988
2023-05-10T00:17:38.769Z,45.7395
2023-05-10T00:18:40.546Z,45.6696
2023-05-10T00:19:42.374Z,45.6407
2023-05-10T00:20:44.212Z,45.6659
2023-05-10T00:21:46.050Z,45.6305
2023-05-10T00:22:47.886Z,45.6265
2023-05-10T00:23:49.722Z,45.5610
2023-05-10T00:24:51.547Z,45.5752
2023-05-10T00:25:53.399Z,45.6106
2023-05-10T00:26:55.236Z,45.6336
2023-05-10T00:27:57.052Z,45.6321
2023-05-10T00:28:58.901Z,45.5836
2023-05-10T00:30:00.725Z,45.6342
2023-05-10T00:31:02.568Z,45.6271
2023-05-10T00:32:04.475Z,45.5564
2023-05-10T00:33:06.308Z,45.5982
2023-05-10T00:34:08.064Z,45.6158
2023-05-10T00:35:09.919Z,45.6336
2023-05-10T00:36:11.788Z,45.6416
2023-05-10T00:37:13.601Z,45.5896
2023-05-10T00:38:15.417Z,45.5856
2023-05-10T00:39:17.267Z,45.5690
2023-05-10T00:40:19.232Z,45.5762
2023-05-10T00:41:20.942Z,45.5684
2023-05-10T00:42:22.763Z,45.5579
2023-05-10T00:43:24.592Z,45.5778
2023-05-10T00:44:26.422Z,45.5752
2023-05-10T00:45:28.282Z,45.5206
2023-05-10T00:46:30.192Z,45.5078
2023-05-10T00:47:31.964Z,45.5041
2023-05-10T00:48:33.786Z,45.4548
2023-05-10T00:49:35.611Z,45.4552
2023-05-10T00:50:37.462Z,45.5415
2023-05-10T00:51:39.268Z,45.5355
2023-05-10T00:52:41.091Z,45.5572
2023-05-10T00:53:42.942Z,45.5274
2023-05-10T00:54:44.762Z,45.5505
2023-05-10T00:55:46.589Z,45.5823
2023-05-10T00:56:48.445Z,45.5970
2023-05-10T00:57:50.250Z,45.5771
2023-05-10T00:58:52.098Z,45.6440
2023-05-10T00:59:53.930Z,45.6746
2023-05-10T01:00:55.762Z,45.6731
2023-05-10T01:01:57.612Z,45.6504
2023-05-10T01:02:59.514Z,45.6877
2023-05-10T01:04:01.257Z,45.6948
2023-05-10T01:05:03.178Z,45.7747
2023-05-10T01:06:04.932Z,45.7266
2023-05-10T01:07:06.762Z,45.7122
2023-05-10T01:08:08.636Z,45.6772
2023-05-10T01:09:10.437Z,45.7030
2023-05-10T01:10:12.283Z,45.7366
2023-05-10T01:11:14.118Z,45.7442
2023-05-10T01:12:16.012Z,45.7329
2023-05-10T01:13:17.807Z,45.7064
2023-05-10T01:14:19.608Z,45.7619
2023-05-10T01:15:21.457Z,45.7743
2023-05-10T01:16:23.368Z,45.7327
2023-05-10T01:17:25.121Z,45.7174
2023-05-10T01:18:26.944Z,45.7381
2023-05-10T01:19:28.798Z,45.7170
2023-05-10T01:20:30.644Z,45.6933
2023-05-10T01:21:32.464Z,45.7561
2023-05-10T01:22:34.310Z,45.6774
2023-05-10T01:23:36.139Z,45.6144
2023-05-10T01:24:37.956Z,45.6476
2023-05-10T01:25:39.796Z,45.6415
2023-05-10T01:26:41.652Z,45.6408
2023-05-10T01:27:43.481Z,45.6356
2023-05-10T01:28:45.319Z,45.6323
2023-05-10T01:29:47.140Z,45.6394
2023-05-10T01:30:48.983Z,45.6204
2023-05-10T01:31:50.892Z,45.6253
2023-05-10T01:32:52.731Z,45.6463
2023-05-10T01:33:54.508Z,45.6385
2023-05-10T01:34:56.325Z,45.6130
2023-05-10T01:35:58.166Z,45.6238
2023-05-10T01:37:00.039Z,45.6084
2023-05-10T01:38:01.850Z,45.5795
2023-05-10T01:39:03.706Z,45.5685
2023-05-10T01:40:05.526Z,45.5643
2023-05-10T01:41:07.356Z,45.5511
2023-05-10T01:42:09.197Z,45.5963
2023-05-10T01:43:11.039Z,45.5237
2023-05-10T01:44:12.864Z,45.5556
2023-05-10T01:45:14.727Z,45.5374
2023-05-10T01:46:16.593Z,45.5514
2023-05-10T01:47:18.387Z,45.5572
2023-05-10T01:48:20.211Z,45.6602
2023-05-10T01:49:22.051Z,45.6687
2023-05-10T01:50:23.890Z,45.6079
2023-05-10T01:51:25.766Z,45.5558
2023-05-10T01:52:27.567Z,45.5754
2023-05-10T01:53:29.396Z,45.6482
2023-05-10T01:54:31.244Z,45.6534
2023-05-10T01:55:33.079Z,45.6054
2023-05-10T01:56:34.898Z,45.6193
2023-05-10T01:57:36.812Z,45.6154
2023-05-10T01:58:38.579Z,45.5934
2023-05-10T01:59:40.419Z,45.5677
2023-05-10T02:00:42.285Z,45.6187
2023-05-10T02:01:44.077Z,45.6563
2023-05-10T02:02:46.026Z,45.5798
2023-05-10T02:03:47.810Z,45.5372
2023-05-10T02:04:49.584Z,45.5489
2023-05-10T02:05:59.055Z,45.5678
2023-05-10T02:06:53.280Z,45.5644
2023-05-10T02:07:55.100Z,45.5647
2023-05-10T02:08:56.931Z,45.5301
2023-05-10T02:09:58.769Z,45.5605
2023-05-10T02:11:00.595Z,45.5882
2023-05-10T02:12:02.425Z,45.6234
2023-05-10T02:13:04.381Z,45.6251
2023-05-10T02:14:06.117Z,45.6329
2023-05-10T02:15:07.949Z,45.6739
2023-05-10T02:16:09.841Z,45.6934
2023-05-10T02:17:11.608Z,45.6908
2023-05-10T02:18:13.456Z,45.6937
2023-05-10T02:19:15.292Z,45.7407
2023-05-10T02:20:17.469Z,45.7829
2023-05-10T02:21:19.020Z,45.7547
2023-05-10T02:22:20.873Z,45.7757
2023-05-10T02:23:22.712Z,45.7984
2023-05-10T02:24:24.507Z,45.8011
2023-05-10T02:25:26.350Z,45.8245
2023-05-10T02:26:28.191Z,45.8239
2023-05-10T02:27:30.041Z,45.8311
2023-05-10T02:28:31.867Z,45.8561
2023-05-10T02:29:33.678Z,45.8460
2023-05-10T02:30:35.512Z,45.8387
2023-05-10T02:31:37.386Z,45.8896
2023-05-10T02:32:39.217Z,45.8712
2023-05-10T02:33:41.018Z,45.8353
2023-05-10T02:34:42.844Z,45.8328
2023-05-10T02:35:44.695Z,45.8579
2023-05-10T02:36:46.526Z,45.8887
2023-05-10T02:37:48.348Z,45.8861
2023-05-10T02:38:50.194Z,45.8535
2023-05-10T02:39:52.027Z,45.8287
2023-05-10T02:40:53.867Z,45.8362
2023-05-10T02:41:55.703Z,45.8225
2023-05-10T02:42:57.540Z,45.7914
2023-05-10T02:43:59.373Z,45.7998
2023-05-10T02:45:01.225Z,45.8008
2023-05-10T02:46:03.063Z,45.8338
2023-05-10T02:47:04.865Z,45.8548
2023-05-10T02:48:06.736Z,45.8158
2023-05-10T02:49:08.550Z,45.8139
2023-05-10T02:50:10.376Z,45.8095
2023-05-10T02:51:12.215Z,45.8345
2023-05-10T02:52:14.051Z,45.8273
2023-05-10T02:53:15.880Z,45.8003
2023-05-10T02:54:17.741Z,45.8326
2023-05-10T02:55:19.563Z,45.8126
2023-05-10T02:56:21.405Z,45.7724
2023-05-10T02:57:23.223Z,45.7338
2023-05-10T02:58:25.079Z,45.6973
2023-05-10T02:59:26.911Z,45.6928
2023-05-10T03:00:28.746Z,45.7386
2023-05-10T03:01:30.604Z,45.7524
2023-05-10T03:02:32.533Z,45.7360
2023-05-10T03:03:34.243Z,45.7375
2023-05-10T03:04:36.129Z,45.7718
2023-05-10T03:05:37.939Z,45.7771
2023-05-10T03:06:39.788Z,45.7575
2023-05-10T03:07:41.606Z,45.7813
2023-05-10T03:08:43.446Z,45.7617
2023-05-10T03:09:45.290Z,45.7390
2023-05-10T03:10:47.124Z,45.7460
2023-05-10T03:11:48.944Z,45.7441
2023-05-10T03:12:50.807Z,45.7815
2023-05-10T03:13:52.636Z,45.7622
2023-05-10T03:14:54.489Z,45.7867
2023-05-10T03:15:56.346Z,45.7779
2023-05-10T03:16:58.136Z,45.7515
2023-05-10T03:18:00.014Z,45.7510
2023-05-10T03:19:01.827Z,45.7498
2023-05-10T03:20:03.669Z,45.7659
2023-05-10T03:21:05.497Z,45.7584
2023-05-10T03:22:07.333Z,45.8062
2023-05-10T03:23:09.164Z,45.7920
2023-05-10T03:24:11.009Z,45.7686
2023-05-10T03:25:12.858Z,45.8069
2023-05-10T03:26:14.684Z,45.7734
2023-05-10T03:27:16.650Z,45.7728
2023-05-10T03:28:18.370Z,45.7752
2023-05-10T03:29:20.195Z,45.7622
2023-05-10T03:30:22.033Z,45.7314
2023-05-10T03:31:23.930Z,45.7170
2023-05-10T03:32:25.750Z,45.7279
2023-05-10T03:33:27.521Z,45.7342
2023-05-10T03:34:29.367Z,45.7469
2023-05-10T03:35:31.201Z,45.7227
2023-05-10T03:36:33.047Z,45.7507
2023-05-10T03:37:34.880Z,45.8028
2023-05-10T03:38:36.696Z,45.8151
2023-05-10T03:39:38.542Z,45.7971
2023-05-10T03:40:40.365Z,45.8055
2023-05-10T03:41:42.206Z,45.7971
2023-05-10T03:42:44.037Z,45.7960
2023-05-10T03:43:45.875Z,45.7663
2023-05-10T03:44:47.741Z,45.7868
2023-05-10T03:45:49.579Z,45.7848
2023-05-10T03:46:51.420Z,45.7507
2023-05-10T03:47:53.256Z,45.7591
2023-05-10T03:48:55.070Z,45.7626
2023-05-10T03:49:56.911Z,45.8170
2023-05-10T03:50:58.732Z,45.7950
2023-05-10T03:52:00.588Z,45.8191
2023-05-10T03:53:02.418Z,45.8004
2023-05-10T03:54:04.271Z,45.8232
2023-05-10T03:55:06.088Z,45.8148
2023-05-10T03:56:07.923Z,45.7673
2023-05-10T03:57:09.758Z,45.7785
2023-05-10T03:58:11.592Z,45.7738
2023-05-10T03:59:13.422Z,45.7835
2023-05-10T04:00:15.630Z,45.7821
2023-05-10T04:01:17.103Z,45.7169
2023-05-10T04:02:18.960Z,45.6781
2023-05-10T04:03:20.830Z,45.6834
2023-05-10T04:04:22.605Z,45.6512
2023-05-10T04:05:24.434Z,45.6887
2023-05-10T04:06:26.400Z,45.7295
2023-05-10T04:07:28.110Z,45.7266
2023-05-10T04:08:29.972Z,45.7096
2023-05-10T04:09:31.764Z,45.7537
2023-05-10T04:10:33.611Z,45.7388
2023-05-10T04:11:35.455Z,45.6990
2023-05-10T04:12:37.270Z,45.6599
2023-05-10T04:13:39.244Z,45.6625
2023-05-10T04:14:40.951Z,45.7097
2023-05-10T04:15:42.780Z,45.7549
2023-05-10T04:16:44.678Z,45.6973
2023-05-10T04:17:46.522Z,45.7018
2023-05-10T04:18:48.289Z,45.7191
2023-05-10T04:19:50.139Z,45.6827
2023-05-10T04:20:51.977Z,45.6940
2023-05-10T04:21:53.891Z,45.6846
2023-05-10T04:22:55.643Z,45.6969
2023-05-10T04:23:57.481Z,45.6494
2023-05-10T04:24:59.315Z,45.6376
2023-05-10T04:26:01.168Z,45.6816
2023-05-10T04:27:03.000Z,45.6537
2023-05-10T04:28:04.814Z,45.6320
2023-05-10T04:29:06.648Z,45.5789
2023-05-10T04:30:08.492Z,45.5582
2023-05-10T04:31:10.360Z,45.5853
2023-05-10T04:32:12.164Z,45.5897
2023-05-10T04:33:14.034Z,45.5892
2023-05-10T04:34:15.830Z,45.5658
2023-05-10T04:35:17.680Z,45.5261
2023-05-10T04:36:19.510Z,45.5193
2023-05-10T04:37:21.342Z,45.4983
2023-05-10T04:38:23.178Z,45.4798
2023-05-10T04:39:25.024Z,45.4519
2023-05-10T04:40:26.859Z,45.4532
2023-05-10T04:41:28.689Z,45.4625
2023-05-10T04:42:30.539Z,45.4431
2023-05-10T04:43:32.382Z,45.4254
2023-05-10T04:44:34.201Z,45.4126
2023-05-10T04:45:36.050Z,45.4805
2023-05-10T04:46:37.966Z,45.4417
2023-05-10T04:47:39.820Z,45.4171
2023-05-10T04:48:41.571Z,45.3960
2023-05-10T04:49:43.416Z,45.3958
2023-05-10T04:50:45.244Z,45.3927
2023-05-10T04:51:47.082Z,45.3487
2023-05-10T04:52:48.907Z,45.3577
2023-05-10T04:53:57.820Z,45.3605
2023-05-10T04:54:53.583Z,45.3132
2023-05-10T04:55:54.431Z,45.3090
2023-05-10T04:56:56.256Z,45.2586
2023-05-10T04:57:58.095Z,45.2190
2023-05-10T04:58:59.935Z,45.1918
2023-05-10T05:00:01.766Z,45.1241
2023-05-10T05:01:03.585Z,45.0981
2023-05-10T05:02:05.611Z,45.1085
2023-05-10T05:03:07.289Z,45.1073
2023-05-10T05:04:09.088Z,45.0497
2023-05-10T05:05:10.920Z,45.0452
2023-05-10T05:06:12.777Z,44.9603
2023-05-10T05:07:14.608Z,44.9570
2023-05-10T05:08:16.436Z,44.9471
2023-05-10T05:09:18.285Z,44.9316
2023-05-10T05:10:20.260Z,44.8878
2023-05-10T05:11:21.945Z,44.8665
2023-05-10T05:12:23.771Z,44.8675
2023-05-10T05:13:25.713Z,44.7833
2023-05-10T05:14:27.465Z,44.7075
2023-05-10T05:15:29.304Z,44.6992
2023-05-10T05:16:31.219Z,44.6889
2023-05-10T05:17:33.010Z,44.6371
2023-05-10T05:18:34.796Z,44.6079
2023-05-10T05:19:36.631Z,44.5809
2023-05-10T05:20:38.481Z,44.5125
2023-05-10T05:21:40.362Z,44.4845
2023-05-10T05:22:42.154Z,44.4444
2023-05-10T05:23:43.976Z,44.3647
2023-05-10T05:24:45.812Z,44.3510
2023-05-10T05:25:47.666Z,44.3385
2023-05-10T05:26:49.504Z,44.3115
2023-05-10T05:27:51.345Z,44.2823
2023-05-10T05:28:53.164Z,44.2893
2023-05-10T05:29:55.039Z,44.3434
2023-05-10T05:30:56.842Z,44.3039
2023-05-10T05:31:58.729Z,44.3052
2023-05-10T05:33:00.664Z,44.3518
2023-05-10T05:34:02.372Z,44.3747
2023-05-10T05:35:04.200Z,44.3015
2023-05-10T05:36:06.061Z,44.2869
2023-05-10T05:37:07.885Z,44.3034
2023-05-10T05:38:09.722Z,44.3102
2023-05-10T05:39:11.545Z,44.3478
2023-05-10T05:40:13.398Z,44.3456
2023-05-10T05:41:15.224Z,44.3371
2023-05-10T05:42:17.043Z,44.3552
2023-05-10T05:43:18.897Z,44.3483
2023-05-10T05:44:20.714Z,44.3924
2023-05-10T05:45:22.551Z,44.3631
2023-05-10T05:46:24.479Z,44.4139
2023-05-10T05:47:26.287Z,44.4012
2023-05-10T05:48:28.056Z,44.4159
2023-05-10T05:49:29.918Z,44.4420
2023-05-10T05:50:31.748Z,44.4493
2023-05-10T05:51:33.570Z,44.4395
2023-05-10T05:52:35.411Z,44.4255
2023-05-10T05:53:37.265Z,44.4207
2023-05-10T05:54:39.102Z,44.4048
2023-05-10T05:55:40.950Z,44.3693
2023-05-10T05:56:42.778Z,44.3393
2023-05-10T05:57:44.616Z,44.3136
2023-05-10T05:58:46.462Z,44.2895
2023-05-10T05:59:48.290Z,44.2893
2023-05-10T06:00:50.124Z,44.2648
2023-05-10T06:01:51.962Z,44.2695
2023-05-10T06:02:53.837Z,44.2199
2023-05-10T06:03:55.771Z,44.2294
2023-05-10T06:04:57.484Z,44.2648
2023-05-10T06:05:59.291Z,44.2667
2023-05-10T06:07:01.142Z,44.2524
2023-05-10T06:08:02.994Z,44.2245
2023-05-10T06:09:04.806Z,44.2193
2023-05-10T06:10:06.656Z,44.2418
2023-05-10T06:11:08.487Z,44.2686
2023-05-10T06:12:10.322Z,44.2976
2023-05-10T06:13:12.206Z,44.3200
2023-05-10T06:14:14.010Z,44.3253
2023-05-10T06:15:16.014Z,44.3189
2023-05-10T06:16:17.726Z,44.2731
2023-05-10T06:17:19.533Z,44.2805
2023-05-10T06:18:21.348Z,44.2758
2023-05-10T06:19:23.221Z,44.2535
2023-05-10T06:20:25.047Z,44.3069
2023-05-10T06:21:26.880Z,44.2979
2023-05-10T06:22:28.773Z,44.3469
2023-05-10T06:23:30.631Z,44.3231
2023-05-10T06:24:32.450Z,44.3206
2023-05-10T06:25:34.287Z,44.2824
2023-05-10T06:26:36.141Z,44.2900
2023-05-10T06:27:37.962Z,44.2311
2023-05-10T06:28:39.795Z,44.1534
2023-05-10T06:29:41.629Z,44.0920
2023-05-10T06:30:43.477Z,44.0544
2023-05-10T06:31:45.400Z,44.0052
2023-05-10T06:32:47.281Z,43.9704
2023-05-10T06:33:48.994Z,43.9633
2023-05-10T06:34:50.815Z,43.9725
2023-05-10T06:35:52.655Z,43.8499
2023-05-10T06:36:54.512Z,43.7972
2023-05-10T06:37:56.335Z,43.6789
2023-05-10T06:38:58.173Z,43.5494
2023-05-10T06:40:00.015Z,43.5055
2023-05-10T06:41:01.846Z,43.3836
2023-05-10T06:42:03.693Z,43.3301
2023-05-10T06:43:05.511Z,43.1530
2023-05-10T06:44:07.360Z,43.0693
2023-05-10T06:45:09.202Z,43.1425
2023-05-10T06:46:11.061Z,43.0631
2023-05-10T06:47:12.870Z,42.9428
2023-05-10T06:48:14.743Z,42.8387
2023-05-10T06:49:16.572Z,42.7865
2023-05-10T06:50:18.367Z,42.7196
2023-05-10T06:51:20.204Z,42.6434
2023-05-10T06:52:22.034Z,42.7144
2023-05-10T06:53:23.886Z,42.6491
2023-05-10T06:54:25.726Z,42.6319
2023-05-10T06:55:27.552Z,42.5152
2023-05-10T06:56:29.388Z,42.5609
2023-05-10T06:57:32.195Z,42.5469
2023-05-10T06:58:33.088Z,42.4838
2023-05-10T06:59:34.980Z,42.4515
2023-05-10T07:00:36.781Z,42.3965
2023-05-10T07:01:38.592Z,42.4485
2023-05-10T07:02:40.408Z,42.4053
2023-05-10T07:03:42.281Z,42.3469
2023-05-10T07:04:44.091Z,42.3963
2023-05-10T07:05:45.900Z,42.3518
2023-05-10T07:06:47.763Z,42.2870
2023-05-10T07:07:49.573Z,42.4017
2023-05-10T07:08:51.432Z,42.4212
2023-05-10T07:09:53.251Z,42.3644
2023-05-10T07:10:55.090Z,42.3656
2023-05-10T07:11:56.942Z,42.2591
2023-05-10T07:12:58.828Z,42.3102
2023-05-10T07:14:00.632Z,42.2234
2023-05-10T07:15:02.447Z,42.1881
2023-05-10T07:16:04.333Z,42.2214
2023-05-10T07:17:06.141Z,42.1788
2023-05-10T07:18:08.030Z,42.0917
2023-05-10T07:19:09.797Z,42.1298
2023-05-10T07:20:11.633Z,42.1506
2023-05-10T07:21:13.525Z,42.1991
2023-05-10T07:22:15.320Z,42.1292
2023-05-10T07:23:17.148Z,42.1443
2023-05-10T07:24:19.000Z,42.0526
2023-05-10T07:25:20.817Z,42.0833
2023-05-10T07:26:22.672Z,42.0728
2023-05-10T07:27:24.510Z,42.0819
2023-05-10T07:28:26.348Z,42.0697
2023-05-10T07:29:28.195Z,42.0741
2023-05-10T07:30:30.047Z,42.0832
2023-05-10T07:31:31.910Z,42.1180
2023-05-10T07:32:33.822Z,42.0411
2023-05-10T07:33:35.516Z,42.0819
2023-05-10T07:34:37.374Z,42.0077
2023-05-10T07:35:39.209Z,41.9709
2023-05-10T07:36:41.021Z,41.9875
2023-05-10T07:37:42.854Z,41.9464
2023-05-10T07:38:44.722Z,41.9620
2023-05-10T07:39:46.547Z,41.9225
2023-05-10T07:40:48.370Z,41.9330
2023-05-10T07:41:50.224Z,41.9262
2023-05-10T07:42:52.053Z,41.9479
2023-05-10T07:43:53.922Z,41.9417
2023-05-10T07:44:55.723Z,41.9106
2023-05-10T07:45:57.590Z,41.9363
2023-05-10T07:46:59.411Z,41.9179
2023-05-10T07:48:01.290Z,41.8877
2023-05-10T07:49:03.073Z,41.8556
2023-05-10T07:50:04.924Z,41.9081
2023-05-10T07:51:07.329Z,41.9009
2023-05-10T07:52:08.604Z,41.9626
2023-05-10T07:53:10.444Z,42.0052
2023-05-10T07:54:12.333Z,42.0127
2023-05-10T07:55:14.139Z,42.0699
2023-05-10T07:56:15.941Z,42.0567
2023-05-10T07:57:17.797Z,42.0935
2023-05-10T07:58:19.618Z,42.0482
2023-05-10T07:59:21.471Z,42.0576
2023-05-10T08:00:23.309Z,42.0309
2023-05-10T08:01:25.140Z,41.9755
2023-05-10T08:02:27.071Z,41.9938
2023-05-10T08:03:28.950Z,41.9995
2023-05-10T08:04:30.670Z,42.2165
2023-05-10T08:05:34.046Z,42.0713
2023-05-10T08:06:34.318Z,41.8848
2023-05-10T08:07:36.156Z,41.8380
2023-05-10T08:08:38.004Z,41.7354
2023-05-10T08:09:39.838Z,41.7110
2023-05-10T08:10:41.692Z,41.6561
2023-05-10T08:11:43.508Z,41.5107
2023-05-10T08:12:45.352Z,41.4824
2023-05-10T08:13:47.225Z,41.4334
2023-05-10T08:14:49.033Z,41.4632
2023-05-10T08:15:50.903Z,41.4216
2023-05-10T08:16:52.711Z,41.4152
2023-05-10T08:17:54.555Z,41.3754
2023-05-10T08:18:56.581Z,41.3106
2023-05-10T08:19:58.210Z,41.3078
2023-05-10T08:21:00.062Z,41.3073
2023-05-10T08:22:01.897Z,41.2490
2023-05-10T08:23:03.719Z,41.2552
2023-05-10T08:24:05.567Z,41.2540
2023-05-10T08:25:07.411Z,41.2014
2023-05-10T08:26:09.231Z,41.1781
2023-05-10T08:27:11.082Z,41.1923
2023-05-10T08:28:12.913Z,41.2241
2023-05-10T08:29:14.736Z,41.2013
2023-05-10T08:30:16.566Z,41.2221
2023-05-10T08:31:18.425Z,41.2262
2023-05-10T08:32:20.235Z,41.1634
2023-05-10T08:33:22.082Z,41.1073
2023-05-10T08:34:24.058Z,41.0882
2023-05-10T08:35:25.762Z,41.0195
2023-05-10T08:36:27.599Z,41.0310
2023-05-10T08:37:29.422Z,41.0464
2023-05-10T08:38:31.255Z,40.9630
2023-05-10T08:39:33.089Z,40.8112
2023-05-10T08:40:34.936Z,40.7579
2023-05-10T08:41:36.777Z,40.6917
2023-05-10T08:42:38.620Z,40.6094
2023-05-10T08:43:40.453Z,40.5466
2023-05-10T08:44:42.303Z,40.5217
2023-05-10T08:45:44.158Z,40.4841
2023-05-10T08:46:46.046Z,40.4089
2023-05-10T08:47:47.826Z,40.4474
2023-05-10T08:48:49.663Z,40.4106
2023-05-10T08:49:51.500Z,40.3465
2023-05-10T08:50:53.334Z,40.3856
2023-05-10T08:51:55.171Z,40.2724
2023-05-10T08:52:57.030Z,40.2567
2023-05-10T08:53:58.895Z,40.2749
2023-05-10T08:55:00.691Z,40.2717
2023-05-10T08:56:02.540Z,40.2418
2023-05-10T08:57:04.380Z,40.2708
2023-05-10T08:58:06.229Z,40.2343
2023-05-10T08:59:08.087Z,40.1783
2023-05-10T09:00:09.918Z,40.1814
2023-05-10T09:01:11.761Z,40.2116
2023-05-10T09:02:13.582Z,40.1435
2023-05-10T09:03:15.428Z,40.1563
2023-05-10T09:04:17.378Z,40.1332
2023-05-10T09:05:19.591Z,40.0845
2023-05-10T09:06:20.942Z,40.0793
2023-05-10T09:07:22.787Z,39.9986
2023-05-10T09:08:24.618Z,39.8921
2023-05-10T09:09:26.457Z,39.8483
2023-05-10T09:10:28.333Z,39.7797
2023-05-10T09:11:30.161Z,39.7763
2023-05-10T09:12:31.981Z,39.8875
2023-05-10T09:13:33.825Z,39.8777
2023-05-10T09:14:35.661Z,39.9111
2023-05-10T09:15:37.487Z,39.9785
2023-05-10T09:16:39.424Z,39.9541
2023-05-10T09:17:41.180Z,39.8781
2023-05-10T09:18:43.028Z,39.8806
2023-05-10T09:19:44.863Z,39.7995
2023-05-10T09:20:46.687Z,39.8461
2023-05-10T09:21:48.529Z,39.7651
2023-05-10T09:22:50.352Z,39.7306
2023-05-10T09:23:52.187Z,39.7785
2023-05-10T09:24:54.035Z,39.7604
2023-05-10T09:25:55.873Z,39.7543
2023-05-10T09:26:57.724Z,39.8017
2023-05-10T09:27:59.560Z,39.8243
2023-05-10T09:29:01.389Z,39.7502
2023-05-10T09:30:03.224Z,39.7111
2023-05-10T09:31:05.134Z,39.6165
2023-05-10T09:32:06.883Z,39.5808
2023-05-10T09:33:08.715Z,39.5548
2023-05-10T09:34:10.568Z,39.4873
2023-05-10T09:35:12.398Z,39.4677
2023-05-10T09:36:14.251Z,39.4103
2023-05-10T09:37:16.095Z,39.3620
2023-05-10T09:38:17.922Z,39.2409
2023-05-10T09:39:19.765Z,39.1924
2023-05-10T09:40:21.584Z,39.1349
2023-05-10T09:41:23.431Z,39.1799
2023-05-10T09:42:25.245Z,39.2022
2023-05-10T09:43:27.099Z,39.2616
2023-05-10T09:44:28.912Z,39.2490
2023-05-10T09:45:30.743Z,39.2519
2023-05-10T09:46:32.779Z,39.1802
2023-05-10T09:47:34.453Z,39.1590
2023-05-10T09:48:36.242Z,39.1524
2023-05-10T09:49:38.091Z,39.0958
2023-05-10T09:50:39.913Z,39.0675
2023-05-10T09:51:41.748Z,39.0621
2023-05-10T09:52:43.594Z,39.0781
2023-05-10T09:53:45.414Z,39.0042
2023-05-10T09:54:47.259Z,38.9801
2023-05-10T09:55:49.089Z,39.0450
2023-05-10T09:56:50.934Z,39.0353
2023-05-10T09:57:52.755Z,39.0166
2023-05-10T09:58:54.602Z,38.9505
2023-05-10T09:59:56.430Z,38.8456
2023-05-10T10:00:58.256Z,38.8645
2023-05-10T10:02:00.246Z,38.8796
2023-05-10T10:03:01.954Z,38.8823
2023-05-10T10:04:03.779Z,38.8450
2023-05-10T10:05:05.630Z,38.7393
2023-05-10T10:06:15.874Z,38.6911
2023-05-10T10:07:11.976Z,38.7186
2023-05-10T10:08:12.556Z,38.7824
2023-05-10T10:09:14.117Z,38.7996
2023-05-10T10:10:15.691Z,38.7425
2023-05-10T10:11:17.251Z,38.6965
2023-05-10T10:12:18.802Z,38.7383
2023-05-10T10:13:20.372Z,38.6091
2023-05-10T10:14:22.126Z,38.5277
2023-05-10T10:15:23.971Z,38.6380
2023-05-10T10:16:25.929Z,38.5765
2023-05-10T10:17:27.655Z,38.5844
2023-05-10T10:18:29.511Z,38.5361
2023-05-10T10:19:31.291Z,38.5563
2023-05-10T10:20:33.141Z,38.5105
2023-05-10T10:21:34.980Z,38.4201
2023-05-10T10:22:36.812Z,38.3216
2023-05-10T10:23:38.626Z,38.2213
2023-05-10T10:24:40.468Z,38.1984
2023-05-10T10:25:42.303Z,38.2108
2023-05-10T10:26:44.232Z,38.2237
2023-05-10T10:27:46.039Z,38.1619
2023-05-10T10:28:47.887Z,38.1565
2023-05-10T10:29:49.723Z,38.1032
2023-05-10T10:30:51.562Z,38.0666
2023-05-10T10:31:53.543Z,37.9472
2023-05-10T10:32:55.253Z,37.8797
2023-05-10T10:33:57.053Z,37.8788
2023-05-10T10:34:58.891Z,37.8602
2023-05-10T10:36:00.729Z,37.8022
2023-05-10T10:37:02.563Z,37.7532
2023-05-10T10:38:04.395Z,37.6636
2023-05-10T10:39:06.208Z,37.5882
2023-05-10T10:40:08.038Z,37.6054
2023-05-10T10:41:09.892Z,37.5680
2023-05-10T10:42:11.730Z,37.4782
2023-05-10T10:43:13.541Z,37.4480
2023-05-10T10:44:15.388Z,37.4169
2023-05-10T10:45:17.484Z,37.3609
2023-05-10T10:46:19.136Z,37.3534
2023-05-10T10:47:20.951Z,37.3130
2023-05-10T10:48:22.712Z,37.2633
2023-05-10T10:49:24.547Z,37.2571
2023-05-10T10:50:26.380Z,37.2390
2023-05-10T10:51:28.223Z,37.2313
2023-05-10T10:52:30.058Z,37.2428
2023-05-10T10:53:32.018Z,37.2066
2023-05-10T10:54:33.747Z,37.2060
2023-05-10T10:55:35.553Z,37.2670
2023-05-10T10:56:37.401Z,37.2273
2023-05-10T10:57:39.251Z,37.2478
2023-05-10T10:58:41.074Z,37.2360
2023-05-10T10:59:42.890Z,37.2122
2023-05-10T11:00:44.787Z,37.1523
2023-05-10T11:01:46.576Z,37.1574
2023-05-10T11:02:48.439Z,37.0649
2023-05-10T11:03:50.248Z,37.1088
2023-05-10T11:04:52.077Z,37.1264
2023-05-10T11:05:53.917Z,37.1265
2023-05-10T11:06:55.763Z,37.1533
2023-05-10T11:07:57.599Z,37.1890
2023-05-10T11:08:59.426Z,37.1329
2023-05-10T11:10:01.274Z,37.1610
2023-05-10T11:11:03.151Z,37.0807
2023-05-10T11:12:04.955Z,37.0514
2023-05-10T11:13:06.805Z,36.9668
2023-05-10T11:14:08.644Z,36.9888
2023-05-10T11:15:10.476Z,36.9791
2023-05-10T11:16:12.332Z,36.9463
2023-05-10T11:17:14.181Z,36.8785
2023-05-10T11:18:16.014Z,36.8009
2023-05-10T11:19:17.847Z,36.7000
2023-05-10T11:20:19.864Z,36.7152
2023-05-10T11:21:21.505Z,36.6853
2023-05-10T11:22:23.346Z,36.6374
2023-05-10T11:23:25.182Z,36.6575
2023-05-10T11:24:27.033Z,36.6556
2023-05-10T11:25:28.869Z,36.7582
2023-05-10T11:26:30.712Z,36.7930
2023-05-10T11:27:32.553Z,36.7555
2023-05-10T11:28:34.381Z,36.7760
2023-05-10T11:29:36.237Z,36.7598
2023-05-10T11:30:38.089Z,36.7130
2023-05-10T11:31:39.930Z,36.7407
2023-05-10T11:32:41.784Z,36.7558
2023-05-10T11:33:43.611Z,36.7029
2023-05-10T11:34:45.449Z,36.6234
2023-05-10T11:35:47.289Z,36.6180
2023-05-10T11:36:49.134Z,36.6378
2023-05-10T11:37:50.984Z,36.6967
2023-05-10T11:38:52.809Z,36.7909
2023-05-10T11:39:54.651Z,36.7663
2023-05-10T11:40:56.488Z,36.7211
2023-05-10T11:41:58.329Z,36.7446
2023-05-10T11:43:00.165Z,36.6720
2023-05-10T11:44:02.028Z,36.7383
2023-05-10T11:45:03.864Z,36.7584
2023-05-10T11:46:05.724Z,36.7807
2023-05-10T11:47:07.528Z,36.7540
2023-05-10T11:48:09.419Z,36.7325
2023-05-10T11:49:11.208Z,36.7175
2023-05-10T11:50:13.034Z,36.6580
2023-05-10T11:51:14.900Z,36.6459
2023-05-10T11:52:16.713Z,36.6361
2023-05-10T11:53:18.568Z,36.5756
2023-05-10T11:54:20.401Z,36.5625
2023-05-10T11:55:22.239Z,36.3789
2023-05-10T11:56:24.073Z,36.4169
2023-05-10T11:57:25.931Z,36.4005
2023-05-10T11:58:27.755Z,36.2484
2023-05-10T11:59:29.608Z,36.1759
2023-05-10T12:00:31.442Z,36.1712
2023-05-10T12:01:33.283Z,36.1299
2023-05-10T12:02:35.245Z,36.0164
2023-05-10T12:03:37.054Z,35.9719
2023-05-10T12:04:38.857Z,35.9336
2023-05-10T12:05:42.897Z,35.7890
2023-05-10T12:06:42.468Z,35.7184
2023-05-10T12:07:44.306Z,35.6412
2023-05-10T12:08:46.164Z,35.7080
2023-05-10T12:09:47.993Z,35.6050
2023-05-10T12:10:49.832Z,35.5375
2023-05-10T12:11:51.653Z,35.3966
2023-05-10T12:12:53.509Z,35.3654
2023-05-10T12:13:55.346Z,35.3043
2023-05-10T12:14:57.168Z,35.2761
2023-05-10T12:15:59.071Z,35.2987
2023-05-10T12:17:00.856Z,35.2827
2023-05-10T12:18:02.733Z,35.3248
2023-05-10T12:19:04.696Z,35.2206
2023-05-10T12:20:06.360Z,35.2464
2023-05-10T12:21:08.205Z,35.2590
2023-05-10T12:22:10.039Z,35.1905
2023-05-10T12:23:11.880Z,35.1565
2023-05-10T12:24:13.717Z,35.0778
2023-05-10T12:25:15.551Z,35.0280
2023-05-10T12:26:17.388Z,35.0426
2023-05-10T12:27:19.232Z,35.0389